Time;durP1;ratioP1;P1;durP2;ratioP2;P2;SDS_P1;SDS_P2;PMS_P1;PMS_P2;Temp;Humidity;BMP_temperature;BMP_pressure;BME280_temperature;BME280_humidity;BME280_pressure;Samples;Min_cycle;Max_cycle;Signal;HPM_P1;HPM_P2
2022/01/04 00:01:11;;;;;;;;;;;;;;;-14.13;63.83;95150.00;6372961;27;19930;-62
2022/01/04 00:04:15;;;;;;;;;;;;;;;-14.17;64.81;95165.16;6373130;27;20420;-63
2022/01/04 00:07:16;;;;;;;;;;;;;;;-13.87;64.30;95161.84;6373675;27;19938;-62
2022/01/04 00:10:21;;;;;;;;;;;;;;;-13.93;63.96;95177.00;6373644;27;20022;-62
2022/01/04 00:13:24;;;;;;;;;;;;;;;-13.79;63.08;95170.28;6373417;27;19923;-62
2022/01/04 00:16:25;;;;;;;;;;;;;;;-13.83;63.10;95168.59;6372666;27;20282;-63
2022/01/04 00:19:29;;;;;;;;;;;;;;;-13.96;63.45;95175.31;6373446;27;19923;-62
2022/01/04 00:22:35;;;;;;;;;;;;;;;-13.98;63.78;95173.59;6373090;27;19924;-63
2022/01/04 00:25:38;;;;;;;;;;;;;;;-13.80;62.66;95179.56;6373106;27;19927;-62
2022/01/04 00:28:39;;;;;;;;;;;;;;;-14.07;62.36;95167.69;6372168;27;19930;-62
2022/01/04 00:31:40;;;;;;;;;;;;;;;-14.35;63.72;95168.44;6373073;27;19919;-62
2022/01/04 00:34:41;;;;;;;;;;;;;;;-14.44;64.30;95163.38;6373102;27;20514;-62
2022/01/04 00:37:42;;;;;;;;;;;;;;;-14.37;63.65;95170.16;6372179;27;19933;-62
2022/01/04 00:40:43;;;;;;;;;;;;;;;-14.22;63.91;95171.88;6372120;27;19988;-62
2022/01/04 00:43:50;;;;;;;;;;;;;;;-14.02;63.22;95177.81;6372892;27;19923;-61
2022/01/04 00:46:51;;;;;;;;;;;;;;;-14.07;62.92;95170.22;6371654;27;20064;-62
2022/01/04 00:49:54;;;;;;;;;;;;;;;-14.19;63.27;95175.25;6372597;27;19923;-62
2022/01/04 00:52:58;;;;;;;;;;;;;;;-14.16;63.06;95185.34;6372704;27;20311;-62
2022/01/04 00:56:01;;;;;;;;;;;;;;;-14.07;62.31;95180.31;6371876;27;19953;-62
2022/01/04 00:59:05;;;;;;;;;;;;;;;-14.32;63.04;95178.56;6372610;27;20312;-62
2022/01/04 01:02:06;;;;;;;;;;;;;;;-14.41;63.57;95176.00;6371657;27;20398;-62
2022/01/04 01:05:10;;;;;;;;;;;;;;;-14.31;63.72;95172.69;6372362;27;20312;-62
2022/01/04 01:08:13;;;;;;;;;;;;;;;-14.26;63.69;95183.66;6372255;27;20022;-61
2022/01/04 01:11:18;;;;;;;;;;;;;;;-14.33;63.40;95189.50;6372161;27;20380;-62
2022/01/04 01:14:21;;;;;;;;;;;;;;;-14.38;63.19;95188.66;6372125;27;19923;-61
2022/01/04 01:17:22;;;;;;;;;;;;;;;-14.38;63.33;95199.59;6371215;27;19939;-62
2022/01/04 01:20:23;;;;;;;;;;;;;;;-14.41;63.43;95188.63;6371015;27;19923;-62
2022/01/04 01:23:24;;;;;;;;;;;;;;;-14.35;63.24;95183.59;6371912;27;19948;-62
2022/01/04 01:26:25;;;;;;;;;;;;;;;-14.24;62.79;95187.00;6371799;27;19923;-62
2022/01/04 01:29:28;;;;;;;;;;;;;;;-14.30;61.94;95192.06;6372187;27;19934;-62
2022/01/04 01:32:31;;;;;;;;;;;;;;;-14.62;62.85;95186.91;6371882;27;19919;-61
2022/01/04 01:35:38;;;;;;;;;;;;;;;-14.60;63.39;95192.81;6371678;28;20400;-62
2022/01/04 01:38:38;;;;;;;;;;;;;;;-14.73;63.87;95184.31;6370627;27;20409;-62
2022/01/04 01:41:39;;;;;;;;;;;;;;;-14.46;63.23;95201.28;6371635;28;19919;-62
2022/01/04 01:44:41;;;;;;;;;;;;;;;-14.55;62.62;95192.00;6370895;28;20316;-63
2022/01/04 01:47:42;;;;;;;;;;;;;;;-14.48;63.18;95197.88;6370973;28;20000;-62
2022/01/04 01:50:43;;;;;;;;;;;;;;;-14.19;62.93;95205.56;6370903;28;19930;-62
2022/01/04 01:53:45;;;;;;;;;;;;;;;-14.35;62.36;95206.34;6371756;28;19923;-62
2022/01/04 01:56:46;;;;;;;;;;;;;;;-14.51;62.87;95208.81;6371668;28;20347;-62
2022/01/04 01:59:47;;;;;;;;;;;;;;;-14.41;62.83;95218.94;6370352;28;19923;-62
2022/01/04 02:02:48;;;;;;;;;;;;;;;-14.39;62.93;95204.66;6370810;28;19927;-63
2022/01/04 02:05:52;;;;;;;;;;;;;;;-14.16;62.00;95220.75;6370696;28;19924;-63
2022/01/04 02:08:53;;;;;;;;;;;;;;;-14.16;62.27;95210.63;6369004;28;19923;-64
2022/01/04 02:11:54;;;;;;;;;;;;;;;-14.22;62.32;95225.78;6370489;28;19919;-62
2022/01/04 02:14:56;;;;;;;;;;;;;;;-14.46;62.58;95231.56;6371264;28;19923;-63
2022/01/04 02:17:57;;;;;;;;;;;;;;;-14.36;62.96;95233.28;6370910;28;19920;-62
2022/01/04 02:20:59;;;;;;;;;;;;;;;-14.50;62.91;95229.84;6370859;28;20311;-62
2022/01/04 02:24:02;;;;;;;;;;;;;;;-14.59;63.74;95239.94;6371007;28;19930;-63
2022/01/04 02:27:04;;;;;;;;;;;;;;;-14.52;63.43;95236.59;6370880;28;19923;-62
2022/01/04 02:30:09;;;;;;;;;;;;;;;-14.61;62.92;95237.41;6371069;28;20311;-63
2022/01/04 02:33:10;;;;;;;;;;;;;;;-14.58;63.69;95242.47;6371008;28;19919;-61
2022/01/04 02:36:13;;;;;;;;;;;;;;;-14.47;63.46;95240.81;6370968;28;20014;-62
2022/01/04 02:39:14;;;;;;;;;;;;;;;-14.70;63.76;95252.50;6371056;28;20406;-62
2022/01/04 02:42:17;;;;;;;;;;;;;;;-14.67;63.33;95252.53;6371133;28;19923;-62
2022/01/04 02:45:18;;;;;;;;;;;;;;;-14.62;63.74;95250.88;6370436;28;19924;-62
2022/01/04 02:48:19;;;;;;;;;;;;;;;-14.59;63.33;95253.41;6370310;28;19999;-62
2022/01/04 02:51:23;;;;;;;;;;;;;;;-14.57;63.55;95253.44;6372419;27;19923;-62
2022/01/04 02:54:24;;;;;;;;;;;;;;;-14.75;64.07;95246.56;6375244;27;20112;-62
2022/01/04 02:57:28;;;;;;;;;;;;;;;-14.54;63.46;95264.38;6375324;27;19927;-62
2022/01/04 03:00:29;;;;;;;;;;;;;;;-14.28;63.21;95258.59;6374640;27;19932;-62
2022/01/04 03:03:31;;;;;;;;;;;;;;;-14.15;62.06;95257.81;6374542;27;19923;-62
2022/01/04 03:06:32;;;;;;;;;;;;;;;-14.44;62.41;95264.41;6375043;27;19931;-62
2022/01/04 03:09:33;;;;;;;;;;;;;;;-14.12;61.52;95270.47;6374963;27;19923;-62
2022/01/04 03:12:34;;;;;;;;;;;;;;;-14.47;62.32;95276.16;6374378;27;19923;-61
2022/01/04 03:15:40;;;;;;;;;;;;;;;-14.25;61.79;95272.06;6375417;27;19927;-62
2022/01/04 03:19:02;;;;;;;;;;;;;;;-14.25;61.78;95261.13;6374786;27;20316;-62
2022/01/04 03:22:02;;;;;;;;;;;;;;;-14.25;61.78;95266.19;6373976;27;19930;-62
2022/01/04 03:25:03;;;;;;;;;;;;;;;-14.38;61.66;95264.44;6374212;27;19929;-62
2022/01/04 03:28:05;;;;;;;;;;;;;;;-14.26;61.75;95264.50;6373459;27;19946;-62
2022/01/04 03:31:06;;;;;;;;;;;;;;;-14.36;61.74;95267.81;6374571;27;20009;-62
2022/01/04 03:34:08;;;;;;;;;;;;;;;-14.01;61.19;95278.06;6373629;27;20410;-62
2022/01/04 03:37:08;;;;;;;;;;;;;;;-14.16;61.53;95280.53;6373494;27;19929;-62
2022/01/04 03:40:10;;;;;;;;;;;;;;;-13.86;61.28;95279.84;6373991;27;20076;-62
2022/01/04 03:43:11;;;;;;;;;;;;;;;-13.81;61.14;95284.06;6373970;27;19923;-62
2022/01/04 03:46:15;;;;;;;;;;;;;;;-13.35;59.87;95283.34;6374016;27;20373;-62
2022/01/04 03:49:17;;;;;;;;;;;;;;;-13.50;59.67;95293.41;6373403;27;20014;-62
2022/01/04 03:52:18;;;;;;;;;;;;;;;-13.55;60.40;95300.16;6373871;27;20410;-64
2022/01/04 03:55:19;;;;;;;;;;;;;;;-13.24;60.21;95296.81;6373923;27;19923;-62
2022/01/04 03:58:20;;;;;;;;;;;;;;;-13.28;59.38;95299.34;6373814;27;20010;-62
2022/01/04 04:01:26;;;;;;;;;;;;;;;-13.05;58.11;95299.34;6373442;27;19923;-63
2022/01/04 04:04:29;;;;;;;;;;;;;;;-13.40;58.15;95302.72;6373788;27;19927;-62
2022/01/04 04:07:30;;;;;;;;;;;;;;;-13.16;57.86;95307.81;6373431;27;19930;-63
2022/01/04 04:10:34;;;;;;;;;;;;;;;-13.49;58.01;95315.34;6373548;27;19924;-62
2022/01/04 04:13:36;;;;;;;;;;;;;;;-13.49;59.02;95311.13;6373569;27;19937;-62
2022/01/04 04:16:41;;;;;;;;;;;;;;;-13.36;58.28;95309.47;6373451;27;20399;-62
2022/01/04 04:19:42;;;;;;;;;;;;;;;-13.41;58.48;95313.69;6372999;27;20040;-64
2022/01/04 04:22:43;;;;;;;;;;;;;;;-13.45;58.05;95317.03;6372323;27;19929;-63
2022/01/04 04:25:44;;;;;;;;;;;;;;;-13.53;58.54;95318.69;6372607;27;19930;-63
2022/01/04 04:28:45;;;;;;;;;;;;;;;-13.40;57.86;95310.31;6372435;27;19935;-63
2022/01/04 04:31:46;;;;;;;;;;;;;;;-13.91;59.35;95321.94;6372902;27;20051;-63
2022/01/04 04:34:50;;;;;;;;;;;;;;;-13.96;59.90;95319.38;6372075;27;20449;-62
2022/01/04 04:37:54;;;;;;;;;;;;;;;-13.88;59.74;95320.25;6372849;27;19923;-62
2022/01/04 04:40:57;;;;;;;;;;;;;;;-13.73;60.22;95323.69;6372983;27;19923;-62
2022/01/04 04:44:01;;;;;;;;;;;;;;;-13.81;60.20;95333.78;6353709;27;19923;-62
2022/01/04 04:47:03;;;;;;;;;;;;;;;-13.41;59.62;95339.00;6372299;27;19924;-62
2022/01/04 04:50:04;;;;;;;;;;;;;;;-13.65;59.11;95338.06;6371087;27;19930;-62
2022/01/04 04:53:05;;;;;;;;;;;;;;;-13.60;59.27;95348.19;6371841;27;19931;-62
2022/01/04 04:56:09;;;;;;;;;;;;;;;-13.38;58.28;95346.59;6372526;27;19981;-62
2022/01/04 04:59:10;;;;;;;;;;;;;;;-13.52;58.54;95345.69;6372324;27;19923;-62
2022/01/04 05:02:13;;;;;;;;;;;;;;;-13.48;58.45;95347.38;6372506;27;20420;-63
2022/01/04 05:05:17;;;;;;;;;;;;;;;-13.32;58.39;95348.28;6371812;27;19931;-63
2022/01/04 05:08:18;;;;;;;;;;;;;;;-13.40;57.98;95345.72;6371575;27;19923;-62
2022/01/04 05:11:19;;;;;;;;;;;;;;;-13.71;58.99;95350.69;6372047;27;19923;-63
2022/01/04 05:14:20;;;;;;;;;;;;;;;-13.54;58.85;95353.28;6371065;27;19923;-62
2022/01/04 05:17:21;;;;;;;;;;;;;;;-13.74;58.91;95363.31;6371048;27;20399;-62
2022/01/04 05:20:24;;;;;;;;;;;;;;;-13.66;58.68;95359.13;6353419;27;20210;-62
2022/01/04 05:23:28;;;;;;;;;;;;;;;-13.55;59.51;95359.19;6371531;27;20334;-64
2022/01/04 05:26:34;;;;;;;;;;;;;;;-13.53;59.42;95361.69;6371865;27;20095;-62
2022/01/04 05:29:38;;;;;;;;;;;;;;;-13.40;58.94;95371.03;6372013;27;19928;-63
2022/01/04 05:32:39;;;;;;;;;;;;;;;-13.19;59.07;95360.94;6371786;27;19930;-62
2022/01/04 05:35:40;;;;;;;;;;;;;;;-13.29;58.85;95379.50;6352948;28;19924;-63
2022/01/04 05:38:43;;;;;;;;;;;;;;;-13.00;57.86;95386.28;6371378;28;20045;-63
2022/01/04 05:41:45;;;;;;;;;;;;;;;-13.09;58.00;95382.06;6370814;28;19923;-63
2022/01/04 05:44:46;;;;;;;;;;;;;;;-13.16;57.54;95391.31;6370718;28;19923;-63
2022/01/04 05:47:49;;;;;;;;;;;;;;;-12.87;57.21;95388.00;6371565;28;20017;-63
2022/01/04 05:50:50;;;;;;;;;;;;;;;-13.06;57.04;95382.06;6370499;28;20036;-63
2022/01/04 05:53:51;;;;;;;;;;;;;;;-12.92;57.32;95390.53;6370710;28;19923;-63
2022/01/04 05:56:52;;;;;;;;;;;;;;;-13.10;57.74;95385.44;6370841;28;20014;-63
2022/01/04 05:59:53;;;;;;;;;;;;;;;-13.29;58.20;95364.31;6370629;28;19923;-62
2022/01/04 06:02:55;;;;;;;;;;;;;;;-13.41;58.71;95385.38;6370767;28;19930;-62
2022/01/04 06:05:56;;;;;;;;;;;;;;;-13.26;58.11;95389.63;6370768;28;19945;-63
2022/01/04 06:09:00;;;;;;;;;;;;;;;-13.36;59.09;95387.91;6371393;28;19923;-62
2022/01/04 06:14:49;;;;;;;;;;;;;;;-13.06;59.40;95392.19;6337084;28;20381;-64
2022/01/04 06:15:25;;;;;;;;;;;;;;;-12.94;58.47;95391.34;6371046;28;19931;-62
2022/01/04 06:18:28;;;;;;;;;;;;;;;-12.71;58.13;95388.84;6370995;28;19919;-63
2022/01/04 06:21:31;;;;;;;;;;;;;;;-12.56;57.67;95388.88;6370155;28;19934;-64
2022/01/04 06:24:33;;;;;;;;;;;;;;;-12.47;57.52;95388.03;6370934;27;19923;-62
2022/01/04 06:27:36;;;;;;;;;;;;;;;-12.15;56.02;95392.25;6375997;27;19924;-64
2022/01/04 06:30:40;;;;;;;;;;;;;;;-12.28;55.80;95391.44;6375985;27;19927;-63
2022/01/04 06:33:45;;;;;;;;;;;;;;;-12.18;56.00;95392.25;6376058;27;19923;-63
2022/01/04 06:36:51;;;;;;;;;;;;;;;-12.12;56.18;95390.53;6375630;27;19930;-63
2022/01/04 06:39:52;;;;;;;;;;;;;;;-11.71;54.84;95391.31;6374676;27;20375;-63
2022/01/04 06:42:56;;;;;;;;;;;;;;;-11.86;55.11;95397.25;6375743;27;19923;-63
2022/01/04 06:45:59;;;;;;;;;;;;;;;-11.84;55.71;95391.31;6375714;27;20396;-62
2022/01/04 06:49:01;;;;;;;;;;;;;;;-11.56;55.38;95398.84;6375176;27;20083;-62
2022/01/04 06:52:03;;;;;;;;;;;;;;;-11.65;54.86;95402.28;6374672;27;19961;-63
2022/01/04 06:55:04;;;;;;;;;;;;;;;-11.62;54.34;95404.78;6374626;27;19958;-63
2022/01/04 06:58:06;;;;;;;;;;;;;;;-11.62;54.76;95420.03;6374973;27;19923;-63
2022/01/04 07:01:07;;;;;;;;;;;;;;;-11.41;53.87;95408.94;6374261;27;19923;-63
2022/01/04 07:04:08;;;;;;;;;;;;;;;-11.48;54.57;95409.84;6374136;27;19944;-63
2022/01/04 07:07:14;;;;;;;;;;;;;;;-11.45;54.17;95403.91;6374322;27;19930;-62
2022/01/04 07:10:16;;;;;;;;;;;;;;;-11.59;54.37;95407.31;6374652;27;19935;-62
2022/01/04 07:13:17;;;;;;;;;;;;;;;-11.59;53.61;95406.47;6374125;27;19920;-62
2022/01/04 07:16:21;;;;;;;;;;;;;;;-11.71;54.21;95412.44;6374724;27;19927;-63
2022/01/04 07:19:23;;;;;;;;;;;;;;;-11.74;53.75;95437.81;6373844;27;20304;-63
2022/01/04 07:22:26;;;;;;;;;;;;;;;-11.79;54.13;95427.66;6374211;27;19923;-62
2022/01/04 07:25:28;;;;;;;;;;;;;;;-11.06;53.16;95423.22;6374309;27;19930;-63
2022/01/04 07:28:29;;;;;;;;;;;;;;;-8.88;50.64;95416.22;6374624;27;19930;-63
2022/01/04 07:31:33;;;;;;;;;;;;;;;-5.72;45.40;95423.88;6374479;27;20350;-63
2022/01/04 07:34:36;;;;;;;;;;;;;;;-2.31;41.54;95421.81;6373668;27;20280;-63
2022/01/04 07:37:37;;;;;;;;;;;;;;;-0.41;36.12;95426.03;6373515;27;19927;-62
2022/01/04 07:40:39;;;;;;;;;;;;;;;-0.62;34.88;95420.09;6374078;27;19946;-63
2022/01/04 07:43:45;;;;;;;;;;;;;;;-1.27;35.94;95416.84;6373912;27;20292;-62
2022/01/04 07:46:47;;;;;;;;;;;;;;;-1.68;34.48;95415.97;6373940;27;19927;-62
2022/01/04 07:49:48;;;;;;;;;;;;;;;-2.11;33.85;95420.22;6373720;27;19923;-61
2022/01/04 07:52:49;;;;;;;;;;;;;;;-2.92;36.84;95413.75;6373380;27;19923;-63
2022/01/04 07:55:50;;;;;;;;;;;;;;;-2.71;37.58;95409.59;6373224;27;19923;-61
2022/01/04 07:59:00;;;;;;;;;;;;;;;-0.68;32.98;95397.09;6373647;27;19923;-63
2022/01/04 08:02:01;;;;;;;;;;;;;;;1.51;33.74;95396.00;6372698;27;19924;-62
2022/01/04 08:05:05;;;;;;;;;;;;;;;3.14;31.04;95400.72;6373380;27;20022;-62
2022/01/04 08:08:11;;;;;;;;;;;;;;;4.20;28.76;95399.47;6373040;27;20293;-62
2022/01/04 08:11:14;;;;;;;;;;;;;;;3.96;29.01;95402.69;6373189;27;20392;-64
2022/01/04 08:14:15;;;;;;;;;;;;;;;3.59;28.92;95417.94;6372285;27;19919;-62
2022/01/04 08:17:16;;;;;;;;;;;;;;;4.01;30.29;95426.63;6354324;27;19931;-62
2022/01/04 08:20:19;;;;;;;;;;;;;;;5.15;26.16;95419.34;6372770;27;20384;-63
2022/01/04 08:23:20;;;;;;;;;;;;;;;5.68;27.77;95432.31;6372790;27;19930;-64
2022/01/04 08:26:24;;;;;;;;;;;;;;;5.96;25.16;95426.06;6372277;27;19923;-66
2022/01/04 08:29:25;;;;;;;;;;;;;;;6.35;25.18;95426.81;6371427;27;19923;-68
2022/01/04 08:32:27;;;;;;;;;;;;;;;6.83;26.94;95432.91;6371677;27;19930;-68
2022/01/04 08:35:30;;;;;;;;;;;;;;;6.45;25.24;95433.03;6372482;27;19923;-67
2022/01/04 08:38:33;;;;;;;;;;;;;;;5.70;25.69;95440.88;6371680;27;19920;-66
2022/01/04 08:41:38;;;;;;;;;;;;;;;5.10;24.04;95447.50;6372303;27;19967;-67
2022/01/04 08:44:39;;;;;;;;;;;;;;;4.05;23.18;95448.97;6371253;27;19942;-66
2022/01/04 08:47:49;;;;;;;;;;;;;;;3.12;25.41;95437.19;6371830;27;20029;-64
2022/01/04 08:50:53;;;;;;;;;;;;;;;2.23;24.38;95447.41;6371559;27;19923;-66
2022/01/04 08:53:56;;;;;;;;;;;;;;;0.00;27.08;95454.34;6371930;27;19923;-64
2022/01/04 08:56:57;;;;;;;;;;;;;;;-1.40;27.88;95437.16;6353567;27;20434;-65
2022/01/04 09:00:03;;;;;;;;;;;;;;;-2.62;30.46;95436.72;6371791;27;19951;-65
2022/01/04 09:03:06;;;;;;;;;;;;;;;-3.12;30.63;95436.75;6371449;27;19923;-65
2022/01/04 09:06:10;;;;;;;;;;;;;;;-3.21;30.58;95443.06;6371179;27;19966;-66
2022/01/04 09:09:13;;;;;;;;;;;;;;;-3.63;31.35;95452.13;6372214;27;19923;-67
2022/01/04 09:12:19;;;;;;;;;;;;;;;-3.70;31.29;95455.81;6372083;27;20325;-67
2022/01/04 09:18:48;;;;;;;;;;;;;;;-4.96;32.57;95444.09;6353924;27;20026;-69
2022/01/04 09:21:55;;;;;;;;;;;;;;;-5.85;34.39;95442.97;6371642;27;20389;-66
2022/01/04 09:24:56;;;;;;;;;;;;;;;-6.79;35.58;95455.28;6371434;27;19923;-65
2022/01/04 09:27:57;;;;;;;;;;;;;;;-7.24;36.97;95452.75;6370577;27;19927;-64
2022/01/04 09:30:58;;;;;;;;;;;;;;;-7.70;37.68;95452.69;6370656;27;19930;-64
2022/01/04 09:34:00;;;;;;;;;;;;;;;-8.02;38.85;95460.88;6370446;27;19919;-64
2022/01/04 09:37:01;;;;;;;;;;;;;;;-7.98;38.31;95457.41;6370963;27;19924;-66
2022/01/04 09:40:05;;;;;;;;;;;;;;;-8.46;38.96;95457.31;6371553;27;19920;-61
2022/01/04 09:43:11;;;;;;;;;;;;;;;-8.95;40.34;95463.00;6371648;28;19923;-63
2022/01/04 09:46:12;;;;;;;;;;;;;;;-9.20;41.15;95463.28;6370612;28;19923;-63
2022/01/04 09:49:14;;;;;;;;;;;;;;;-9.53;41.18;95462.78;6370586;28;19923;-63
2022/01/04 09:52:19;;;;;;;;;;;;;;;-9.69;42.56;95471.41;6371088;28;19924;-63
2022/01/04 09:55:20;;;;;;;;;;;;;;;-10.21;43.02;95479.47;6371370;28;20383;-63
2022/01/04 09:58:23;;;;;;;;;;;;;;;-10.23;43.53;95476.91;6371528;28;19930;-63
2022/01/04 10:01:24;;;;;;;;;;;;;;;-10.66;43.96;95476.38;6373936;27;19923;-64
2022/01/04 10:04:28;;;;;;;;;;;;;;;-11.27;45.44;95479.16;6376272;27;19923;-63
2022/01/04 10:07:29;;;;;;;;;;;;;;;-11.49;45.92;95465.66;6375321;27;20445;-62
2022/01/04 10:10:33;;;;;;;;;;;;;;;-11.84;46.61;95467.41;6376161;27;19923;-63
2022/01/04 10:13:34;;;;;;;;;;;;;;;-11.91;46.70;95475.09;6357722;27;19930;-63
2022/01/04 10:16:48;;;;;;;;;;;;;;;-12.09;47.48;95464.06;6376304;27;19931;-63
2022/01/04 10:19:54;;;;;;;;;;;;;;;-12.17;47.71;95473.38;6376007;27;20342;-63
2022/01/04 10:22:55;;;;;;;;;;;;;;;-12.20;47.77;95478.44;6376221;27;19924;-62
2022/01/04 10:26:03;;;;;;;;;;;;;;;-12.05;47.33;95472.53;6375726;27;20312;-63
2022/01/04 10:29:20;;;;;;;;;;;;;;;-12.56;48.94;95481.78;6375745;27;19962;-62
2022/01/04 10:32:26;;;;;;;;;;;;;;;-12.58;48.85;95491.06;6375739;27;20389;-63
2022/01/04 10:35:27;;;;;;;;;;;;;;;-12.49;48.76;95491.06;6374960;27;19930;-63
2022/01/04 10:38:29;;;;;;;;;;;;;;;-12.89;49.10;95490.97;6357046;27;19923;-64
2022/01/04 10:41:33;;;;;;;;;;;;;;;-12.97;49.78;95497.69;6375327;27;19927;-63
2022/01/04 10:44:37;;;;;;;;;;;;;;;-12.81;49.44;95504.50;6374911;27;19923;-62
2022/01/04 10:47:38;;;;;;;;;;;;;;;-12.84;50.32;95509.56;6374049;27;19930;-64
2022/01/04 10:50:42;;;;;;;;;;;;;;;-12.90;50.17;95509.56;6356218;27;19923;-64
2022/01/04 10:53:44;;;;;;;;;;;;;;;-13.04;50.58;95508.66;6375239;27;20296;-64
2022/01/04 10:56:48;;;;;;;;;;;;;;;-13.18;51.16;95513.66;6374250;27;20388;-63
2022/01/04 10:59:49;;;;;;;;;;;;;;;-13.36;51.50;95519.47;6374344;27;20335;-63
2022/01/04 11:02:50;;;;;;;;;;;;;;;-13.62;51.76;95522.69;6374342;27;19923;-63
2022/01/04 11:05:55;;;;;;;;;;;;;;;-13.80;52.45;95522.59;6374082;27;19919;-62
2022/01/04 11:08:57;;;;;;;;;;;;;;;-14.06;52.47;95525.75;6373671;27;19923;-64
2022/01/04 11:12:07;;;;;;;;;;;;;;;-14.17;52.66;95532.41;6373568;27;20415;-64
2022/01/04 11:15:08;;;;;;;;;;;;;;;-14.33;52.92;95535.63;6373579;27;19927;-64
2022/01/04 11:18:10;;;;;;;;;;;;;;;-14.50;53.32;95531.25;6373742;27;19930;-64
2022/01/04 11:21:13;;;;;;;;;;;;;;;-14.45;52.98;95535.50;6373819;27;20304;-64
2022/01/04 11:24:18;;;;;;;;;;;;;;;-14.62;54.00;95527.78;6374633;27;19937;-64
2022/01/04 11:27:22;;;;;;;;;;;;;;;-14.93;54.04;95538.38;6374360;27;20026;-63
2022/01/04 11:30:32;;;;;;;;;;;;;;;-14.87;54.59;95542.66;6374108;27;19930;-62
2022/01/04 11:33:44;;;;;;;;;;;;;;;-14.89;54.60;95533.38;6373479;27;20285;-64
2022/01/04 11:36:50;;;;;;;;;;;;;;;-14.76;54.25;95530.16;6374271;27;20385;-63
2022/01/04 11:39:56;;;;;;;;;;;;;;;-14.71;54.64;95544.53;6373951;27;20406;-63
2022/01/04 11:43:00;;;;;;;;;;;;;;;-15.06;54.85;95546.63;6374009;27;19923;-63
2022/01/04 11:46:02;;;;;;;;;;;;;;;-15.25;55.80;95553.13;6374145;27;19923;-64
2022/01/04 11:49:08;;;;;;;;;;;;;;;-15.38;55.83;95554.63;6374014;27;20385;-65
2022/01/04 11:52:09;;;;;;;;;;;;;;;-15.40;56.37;95557.97;6373296;27;19932;-64
2022/01/04 11:55:18;;;;;;;;;;;;;;;-15.39;55.84;95568.09;6373166;27;19923;-64
2022/01/04 11:58:23;;;;;;;;;;;;;;;-15.56;56.33;95566.16;6373722;27;19924;-62
2022/01/04 12:01:27;;;;;;;;;;;;;;;-15.47;56.80;95573.84;6372930;27;20031;-62
2022/01/04 12:04:48;;;;;;;;;;;;;;;-15.40;56.55;95568.94;6373154;27;19929;-64
2022/01/04 12:07:58;;;;;;;;;;;;;;;-15.55;56.83;95571.22;6373195;27;19923;-62
2022/01/04 12:10:59;;;;;;;;;;;;;;;-15.63;57.01;95577.81;6354620;27;19929;-63
2022/01/04 12:14:00;;;;;;;;;;;;;;;-15.65;56.74;95580.31;6373422;27;19926;-64
2022/01/04 12:17:12;;;;;;;;;;;;;;;-15.54;57.00;95572.91;6373189;27;19927;-63
2022/01/04 12:20:32;;;;;;;;;;;;;;;-15.36;56.59;95586.63;6372668;27;19931;-63
2022/01/04 12:23:36;;;;;;;;;;;;;;;-15.21;55.55;95581.78;6372986;27;19923;-64
2022/01/04 12:26:38;;;;;;;;;;;;;;;-15.44;56.37;95579.78;6373394;27;20019;-63
2022/01/04 12:29:43;;;;;;;;;;;;;;;-15.79;57.06;95586.00;6372468;27;20204;-64
2022/01/04 12:32:46;;;;;;;;;;;;;;;-15.54;56.90;95587.19;6372808;27;20382;-64
2022/01/04 12:35:47;;;;;;;;;;;;;;;-15.87;57.20;95583.38;6372355;27;20312;-62
2022/01/04 12:38:49;;;;;;;;;;;;;;;-15.85;58.06;95592.66;6372080;27;19923;-64
2022/01/04 12:41:54;;;;;;;;;;;;;;;-16.01;57.84;95603.31;6354153;27;19938;-65
2022/01/04 12:44:57;;;;;;;;;;;;;;;-16.04;58.19;95590.66;6372232;27;20004;-63
2022/01/04 12:47:58;;;;;;;;;;;;;;;-15.92;58.53;95600.94;6372552;27;19939;-63
2022/01/04 12:51:19;;;;;;;;;;;;;;;-16.11;58.56;95614.03;6371783;27;19931;-64
2022/01/04 12:54:21;;;;;;;;;;;;;;;-15.81;58.76;95617.91;6372029;27;19942;-64
2022/01/04 12:57:26;;;;;;;;;;;;;;;-15.86;58.84;95621.19;6372591;27;20304;-63
2022/01/04 13:00:34;;;;;;;;;;;;;;;-15.85;58.90;95622.91;6372093;27;20018;-63
2022/01/04 13:03:35;;;;;;;;;;;;;;;-15.75;59.34;95628.06;6353868;27;19930;-64
2022/01/04 13:06:36;;;;;;;;;;;;;;;-15.53;59.12;95625.03;6371401;27;19923;-63
2022/01/04 13:09:39;;;;;;;;;;;;;;;-15.62;59.15;95635.00;6371949;27;19923;-63
2022/01/04 13:12:42;;;;;;;;;;;;;;;-15.64;59.11;95637.47;6371005;27;20335;-63
2022/01/04 13:15:43;;;;;;;;;;;;;;;-15.75;59.35;95643.19;6371853;27;19946;-64
2022/01/04 13:18:48;;;;;;;;;;;;;;;-15.89;59.13;95651.38;6371641;27;19927;-63
2022/01/04 13:21:59;;;;;;;;;;;;;;;-16.07;59.63;95648.56;6370992;27;19923;-64
2022/01/04 13:25:04;;;;;;;;;;;;;;;-16.18;60.09;95647.50;6370934;27;19924;-63
2022/01/04 13:28:05;;;;;;;;;;;;;;;-16.18;60.05;95653.38;6371913;27;20422;-63
2022/01/04 13:31:18;;;;;;;;;;;;;;;-16.41;59.83;95660.53;6371429;27;19923;-63
2022/01/04 13:34:22;;;;;;;;;;;;;;;-16.53;60.47;95668.69;6353041;27;19924;-64
2022/01/04 13:37:26;;;;;;;;;;;;;;;-16.49;60.59;95676.31;6371218;27;20017;-64
2022/01/04 13:40:29;;;;;;;;;;;;;;;-16.51;60.35;95683.81;6371616;27;19935;-63
2022/01/04 13:43:33;;;;;;;;;;;;;;;-16.46;60.61;95681.41;6370535;28;19930;-63
2022/01/04 13:46:38;;;;;;;;;;;;;;;-16.35;60.00;95695.03;6371357;28;19923;-63
2022/01/04 13:49:44;;;;;;;;;;;;;;;-16.69;60.33;95703.59;6337107;28;20385;-64
2022/01/04 13:52:58;;;;;;;;;;;;;;;-16.78;60.90;95700.09;6371509;28;19931;-63
2022/01/04 13:56:07;;;;;;;;;;;;;;;-16.65;60.39;95701.16;6371434;28;19929;-63
2022/01/04 13:59:18;;;;;;;;;;;;;;;-16.59;60.54;95710.50;6370799;28;19923;-64
2022/01/04 14:02:26;;;;;;;;;;;;;;;-16.30;60.31;95703.53;6370400;28;19930;-64
2022/01/04 14:05:34;;;;;;;;;;;;;;;-16.54;60.27;95703.88;6370321;28;19985;-63
2022/01/04 14:08:48;;;;;;;;;;;;;;;-16.57;60.68;95703.84;6371528;28;20372;-63
2022/01/04 14:12:03;;;;;;;;;;;;;;;-16.58;60.69;95709.69;6370586;28;20339;-63
2022/01/04 14:15:07;;;;;;;;;;;;;;;-16.56;61.02;95713.94;6370026;28;19931;-63
2022/01/04 14:18:08;;;;;;;;;;;;;;;-16.62;61.02;95715.47;6369823;28;19924;-64
2022/01/04 14:21:09;;;;;;;;;;;;;;;-16.56;61.28;95715.59;6370719;28;19924;-62
2022/01/04 14:24:29;;;;;;;;;;;;;;;-16.40;60.97;95727.69;6352059;28;19923;-63
2022/01/04 14:27:32;;;;;;;;;;;;;;;-16.36;61.24;95726.06;6370050;28;19923;-63
2022/01/04 14:30:35;;;;;;;;;;;;;;;-16.28;61.12;95728.75;6370964;28;20308;-64
2022/01/04 14:33:36;;;;;;;;;;;;;;;-16.41;61.16;95720.94;6370906;27;19935;-64
2022/01/04 14:36:37;;;;;;;;;;;;;;;-16.35;61.39;95728.63;6371008;28;19931;-63
2022/01/04 14:39:41;;;;;;;;;;;;;;;-16.38;61.43;95725.19;6370225;28;19930;-64
2022/01/04 14:42:44;;;;;;;;;;;;;;;-16.22;61.56;95731.38;6370736;28;19946;-64
2022/01/04 14:45:45;;;;;;;;;;;;;;;-16.37;61.74;95731.94;6370679;27;19923;-64
2022/01/04 14:48:46;;;;;;;;;;;;;;;-16.56;61.84;95735.72;6375334;27;19930;-64
2022/01/04 14:51:47;;;;;;;;;;;;;;;-16.43;62.07;95740.19;6375667;27;20404;-64
2022/01/04 14:54:51;;;;;;;;;;;;;;;-16.41;62.36;95736.06;6375538;27;19924;-64
2022/01/04 14:57:54;;;;;;;;;;;;;;;-16.39;61.87;95753.69;6374507;27;19927;-64
2022/01/04 15:00:58;;;;;;;;;;;;;;;-16.27;61.84;95748.06;6374708;27;19967;-63
2022/01/04 15:04:04;;;;;;;;;;;;;;;-16.44;61.55;95750.22;6375225;27;19946;-65
2022/01/04 15:07:11;;;;;;;;;;;;;;;-16.33;61.99;95744.63;6357291;27;19923;-62
2022/01/04 15:10:17;;;;;;;;;;;;;;;-16.61;62.08;95737.31;6375150;27;19927;-63
2022/01/04 15:13:21;;;;;;;;;;;;;;;-16.86;62.13;95746.88;6375136;27;19919;-64
2022/01/04 15:16:22;;;;;;;;;;;;;;;-16.75;62.83;95750.44;6374621;27;19923;-63
2022/01/04 15:19:25;;;;;;;;;;;;;;;-16.69;62.90;95746.38;6374761;27;20396;-63
2022/01/04 15:22:26;;;;;;;;;;;;;;;-16.63;62.75;95743.97;6374554;27;19929;-63
2022/01/04 15:25:28;;;;;;;;;;;;;;;-16.81;63.11;95752.00;6374188;27;19923;-63
2022/01/04 15:28:31;;;;;;;;;;;;;;;-16.83;63.21;95756.16;6374696;27;20490;-64
2022/01/04 15:31:33;;;;;;;;;;;;;;;-16.86;63.14;95746.88;6373847;27;19930;-63
2022/01/04 15:34:37;;;;;;;;;;;;;;;-16.79;63.27;95751.22;6374384;27;20467;-64
2022/01/04 15:37:40;;;;;;;;;;;;;;;-16.87;63.47;95755.22;6374389;27;20010;-64
2022/01/04 15:40:41;;;;;;;;;;;;;;;-16.95;63.46;95763.41;6372919;27;20030;-61
2022/01/04 15:43:45;;;;;;;;;;;;;;;-16.67;63.34;95762.34;6373690;27;19923;-64
2022/01/04 15:46:46;;;;;;;;;;;;;;;-16.78;63.38;95773.06;6373853;27;19930;-64